Saxis, Virginia
Current Conditions -  °F | °C
As of 8:54 PM on Saturday 20 Dec 2014 (Local Time) from KWAL Reporting Station
Clear Clear  
Wind Chill: 24°   Ceiling: Unl
Heat Index: 29°   Visibility: 10mi
Dew Point: 25°   Wind: 5mph
Humidity: 85%   Direction: 310°NW
Pressure: 30.31"   Gusts: NA
Location:  37.92°N, 75.72°W
Report Text: KWAL 210154Z AUTO 31004KT 10SM CLR M02/M04 A3031 RMK AO2 SLP260 T10171039
Loading
Personal Weather Stations






























Interactive Weather Map New forecast layout! Learn more

10-Day Weather Forecast

Advertisements
Track Severe Weather on mobile